Time;durP1;ratioP1;P1;durP2;ratioP2;P2;SDS_P1;SDS_P2;PMS_P1;PMS_P2;Temp;Humidity;BMP_temperature;BMP_pressure;BME280_temperature;BME280_humidity;BME280_pressure;Samples;Min_cycle;Max_cycle;Signal;HPM_P1;HPM_P2
2022/05/19 00:04:06;;;;;;;;;;;;;;;;;;21078489;28;19924;-62
2022/05/19 00:14:08;;;;;;;;;;;;;;;;;;21009945;28;1902984;-66
2022/05/19 00:24:11;;;;;;;;;;;;;;;;;;21078209;28;20300;-63
2022/05/19 00:34:13;;;;;;;;;;;;;;;;;;21078357;28;20395;-65
2022/05/19 00:44:15;;;;;;;;;;;;;;;;;;21076917;28;19924;-65
2022/05/19 00:54:17;;;;;;;;;;;;;;;;;;21076417;28;19924;-66
2022/05/19 01:04:19;;;;;;;;;;;;;;;;;;21077216;28;19985;-63
2022/05/19 01:14:20;;;;;;;;;;;;;;;;;;21085117;28;19924;-65
2022/05/19 01:24:24;;;;;;;;;;;;;;;;;;21092249;28;19924;-65
2022/05/19 01:34:27;;;;;;;;;;;;;;;;;;21072226;28;19924;-66
2022/05/19 01:44:30;;;;;;;;;;;;;;;;;;21088716;28;20009;-65
2022/05/19 01:54:35;;;;;;;;;;;;;;;;;;21087437;28;19924;-67
2022/05/19 02:04:38;;;;;;;;;;;;;;;;;;21087205;28;19931;-67
2022/05/19 02:14:50;;;;;;;;;;;;;;;;;;21078412;28;19924;-65
2022/05/19 02:24:58;;;;;;;;;;;;;;;;;;21084750;28;19924;-66
2022/05/19 02:35:03;;;;;;;;;;;;;;;;;;21084354;28;19969;-65
2022/05/19 02:45:06;;;;;;;;;;;;;;;;;;21084497;28;19931;-65
2022/05/19 02:55:09;;;;;;;;;;;;;;;;;;21064850;28;19996;-66
2022/05/19 03:05:12;;;;;;;;;;;;;;;;;;21083411;28;19935;-65
2022/05/19 03:15:15;;;;;;;;;;;;;;;;;;21081756;28;19927;-68
2022/05/19 03:25:18;;;;;;;;;;;;;;;;;;21082035;28;19928;-64
2022/05/19 03:35:20;;;;;;;;;;;;;;;;;;21079902;28;20420;-64
2022/05/19 03:45:23;;;;;;;;;;;;;;;;;;21079500;28;20395;-61
2022/05/19 03:55:25;;;;;;;;;;;;;;;;;;21079525;28;19924;-63
2022/05/19 04:05:27;;;;;;;;;;;;;;;;;;21079453;28;19928;-65
2022/05/19 04:15:29;;;;;;;;;;;;;;;;;;21078445;28;19971;-67
2022/05/19 04:25:32;;;;;;;;;;;;;;;;;;21077463;28;19928;-64
2022/05/19 04:35:36;;;;;;;;;;;;;;;;;;21077780;28;20394;-65
2022/05/19 04:45:39;;;;;;;;;;;;;;;;;;21081967;28;20016;-65
2022/05/19 04:55:41;;;;;;;;;;;;;;;;;;21091917;28;20031;-66
2022/05/19 05:05:43;;;;;;;;;;;;;;;;;;21091900;28;19924;-65
2022/05/19 05:15:45;;;;;;;;;;;;;;;;;;21090663;28;19924;-65
2022/05/19 05:25:48;;;;;;;;;;;;;;;;;;21091454;28;19924;-65
2022/05/19 05:35:49;;;;;;;;;;;;;;;;;;21089246;28;19963;-66
2022/05/19 05:45:52;;;;;;;;;;;;;;;;;;21088296;28;19924;-66
2022/05/19 05:55:53;;;;;;;;;;;;;;;;;;21087606;28;20382;-66
2022/05/19 06:05:56;;;;;;;;;;;;;;;;;;21087375;28;19924;-65
2022/05/19 06:15:57;;;;;;;;;;;;;;;;;;21085403;28;19924;-62
2022/05/19 06:26:00;;;;;;;;;;;;;;;;;;21084450;28;19960;-66
2022/05/19 06:36:03;;;;;;;;;;;;;;;;;;21083660;28;19931;-66
2022/05/19 06:46:05;;;;;;;;;;;;;;;;;;21083351;28;20369;-62
2022/05/19 06:56:08;;;;;;;;;;;;;;;;;;21081995;28;19975;-65
2022/05/19 07:06:10;;;;;;;;;;;;;;;;;;21081019;28;20015;-66
2022/05/19 07:16:12;;;;;;;;;;;;;;;;;;21065234;28;20012;-64
2022/05/19 07:26:14;;;;;;;;;;;;;;;;;;21062528;28;19945;-65
2022/05/19 07:36:16;;;;;;;;;;;;;;;;;;21080738;28;20340;-68
2022/05/19 07:46:18;;;;;;;;;;;;;;;;;;21079269;28;19932;-67
2022/05/19 07:56:20;;;;;;;;;;;;;;;;;;21078915;28;19985;-64
2022/05/19 08:06:22;;;;;;;;;;;;;;;;;;21078269;28;19924;-66
2022/05/19 08:16:24;;;;;;;;;;;;;;;;;;21059256;28;19978;-64
2022/05/19 08:26:25;;;;;;;;;;;;;;;;;;21093299;28;19924;-64
2022/05/19 08:36:27;;;;;;;;;;;;;;;;;;21094862;28;19924;-64
2022/05/19 08:46:30;;;;;;;;;;;;;;;;;;21096519;28;19928;-63
2022/05/19 08:56:31;;;;;;;;;;;;;;;;;;21092891;28;19967;-63
2022/05/19 09:06:33;;;;;;;;;;;;;;;;;;21092360;28;20010;-62
2022/05/19 09:16:34;;;;;;;;;;;;;;;;;;21090962;28;19924;-63
2022/05/19 09:26:35;;;;;;;;;;;;;;;;;;21090678;28;19932;-65
2022/05/19 09:36:41;;;;;;;;;;;;;;;;;;21089983;28;19928;-63
2022/05/19 09:46:42;;;;;;;;;;;;;;;;;;21084914;28;19949;-62
2022/05/19 09:56:43;;;;;;;;;;;;;;;;;;21084259;28;20391;-57
2022/05/19 10:06:44;;;;;;;;;;;;;;;;;;21071210;28;19947;-60
2022/05/19 10:16:45;;;;;;;;;;;29.10;36.10;;;;;;21058178;28;20065;-59
2022/05/19 10:31:02;;;;;;;;;;;28.30;37.10;;;;;;21020194;28;20379;-58
2022/05/19 10:37:37;;;;;;;;;;;28.20;37.70;;;;;;21066901;28;19924;-61
2022/05/19 10:47:38;;;;;;;;;;;;;;;;;;21082363;28;19924;-59
2022/05/19 10:57:39;;;;;;;;;;;;;;;;;;21038319;28;19930;-60
2022/05/19 11:07:41;;;;;;;;;;;;;;;;;;20999436;28;19994;-61
2022/05/19 11:17:43;;;;;;;;;;;;;;;;;;21001074;28;19935;-57
2022/05/19 11:27:44;;;;;;;;;;;;;;;;;;21012363;28;20445;-59
2022/05/19 11:37:46;;;;;;;;;;;;;;;;;;20996599;28;19931;-59
2022/05/19 11:58:10;;;;;;;;;;;;;;;;;;21051844;28;19928;-63
2022/05/19 12:08:12;;;;;;;;;;;;;;;;;;21078559;28;20019;-63
2022/05/19 12:18:14;;;;;;;;;;;;;;;;;;21078126;28;19963;-64
2022/05/19 12:28:16;;;;;;;;;;;;;;;;;;21059078;28;19924;-64
2022/05/19 12:38:18;;;;;;;;;;;;;;;;;;21077504;28;19969;-63
2022/05/19 12:48:21;;;;;;;;;;;;;;;;;;21076410;28;20030;-65
2022/05/19 12:58:37;;;;;;;;;;;33.20;29.40;;;;;;21076504;28;20383;-64
2022/05/19 13:08:40;;;;;;;;;;;32.60;30.00;;;;;;21081294;28;19970;-63
2022/05/19 13:18:43;;;;;;;;;;;32.50;29.60;;;;;;21091010;28;19934;-63
2022/05/19 13:39:15;;;;;;;;;;;32.80;29.00;;;;;;21080585;28;19976;-66
2022/05/19 13:49:18;;;;;;;;;;;;;;;;;;21088347;28;19924;-64
2022/05/19 13:59:20;;;;;;;;;;;32.90;27.60;;;;;;21088579;28;19924;-63
2022/05/19 14:09:43;;;;;;;;;;;33.00;27.90;;;;;;21086167;28;20080;-62
2022/05/19 14:19:45;;;;;;;;;;;33.10;27.40;;;;;;21084815;28;19924;-61
2022/05/19 14:29:47;;;;;;;;;;;33.30;26.50;;;;;;21085144;28;19924;-62
2022/05/19 14:43:03;;;;;;;;;;;34.30;25.20;;;;;;21083274;28;20013;-62
2022/05/19 14:50:20;;;;;;;;;;;33.60;25.80;;;;;;21082797;28;19930;-63
2022/05/19 15:00:24;;;;;;;;;;;34.90;24.00;;;;;;21083166;28;20011;-62
2022/05/19 15:10:27;;;;;;;;;;;34.20;23.90;;;;;;21081380;28;19935;-61
2022/05/19 15:20:30;;;;;;;;;;;33.90;23.70;;;;;;21081495;28;19928;-63
2022/05/19 15:30:33;;;;;;;;;;;34.20;23.20;;;;;;21080332;28;20015;-64
2022/05/19 15:40:34;;;;;;;;;;;34.20;23.40;;;;;;21079579;28;19975;-62
2022/05/19 15:50:40;;;;;;;;;;;34.00;22.50;;;;;;21075746;28;20029;-63
2022/05/19 16:00:42;;;;;;;;;;;33.80;22.90;;;;;;21078510;28;19924;-63
2022/05/19 16:10:47;;;;;;;;;;;33.70;22.90;;;;;;21076895;28;19932;-65
2022/05/19 16:20:49;;;;;;;;;;;33.10;23.60;;;;;;21077918;28;19924;-63
2022/05/19 16:30:51;;;;;;;;;;;33.10;23.00;;;;;;21076950;28;19931;-61
2022/05/19 16:40:53;;;;;;;;;;;32.90;23.70;;;;;;21081586;28;19928;-64
2022/05/19 16:50:54;;;;;;;;;;;33.10;23.10;;;;;;21092591;28;19969;-69
2022/05/19 17:01:01;;;;;;;;;;;33.30;22.70;;;;;;21059849;28;19924;-60
2022/05/19 17:11:02;;;;;;;;;;;33.20;22.50;;;;;;21061108;28;19932;-64
2022/05/19 17:21:04;;;;;;;;;;;33.20;22.50;;;;;;21089447;28;19964;-65
2022/05/19 17:31:05;;;;;;;;;;;33.60;22.00;;;;;;21066961;28;19959;-67
2022/05/19 17:41:08;;;;;;;;;;;33.60;22.20;;;;;;21063302;28;19947;-66
2022/05/19 17:51:09;;;;;;;;;;;33.40;22.50;;;;;;21054691;28;19928;-65
2022/05/19 18:01:11;;;;;;;;;;;32.90;23.20;;;;;;21009812;28;20462;-67
2022/05/19 18:11:13;;;;;;;;;;;32.70;23.70;;;;;;21003266;28;19986;-62
2022/05/19 18:21:14;;;;;;;;;;;32.40;24.30;;;;;;20991053;28;19940;-59
2022/05/19 18:31:16;;;;;;;;;;;32.00;24.90;;;;;;21074117;28;19924;-66
2022/05/19 18:51:38;;;;;;;;;;;31.40;25.20;;;;;;21068418;28;19928;-68
2022/05/19 19:01:40;;;;;;;;;;;;;;;;;;21081072;28;19969;-60
2022/05/19 19:11:41;;;;;;;;;;;30.80;26.10;;;;;;21095699;28;19930;-54
2022/05/19 19:21:47;;;;;;;;;;;;;;;;;;21081522;28;19951;-59
2022/05/19 19:31:48;;;;;;;;;;;30.60;26.30;;;;;;21081052;28;20011;-58
2022/05/19 19:41:50;;;;;;;;;;;30.30;26.80;;;;;;21080348;28;19967;-59
2022/05/19 19:51:54;;;;;;;;;;;29.70;27.10;;;;;;21079865;28;19924;-72
2022/05/19 20:01:55;;;;;;;;;;;29.30;27.20;;;;;;21079777;28;20359;-64
2022/05/19 20:11:58;;;;;;;;;;;29.00;27.50;;;;;;21079276;28;19924;-65
2022/05/19 20:21:59;;;;;;;;;;;28.90;27.40;;;;;;21096225;28;19974;-63
2022/05/19 20:32:00;;;;;;;;;;;28.90;27.30;;;;;;21101593;28;20103;-64
2022/05/19 20:42:02;;;;;;;;;;;28.70;27.50;;;;;;21101195;28;19977;-63
2022/05/19 20:52:04;;;;;;;;;;;28.60;27.60;;;;;;21097181;28;20288;-63
2022/05/19 21:02:06;;;;;;;;;;;;;;;;;;21095871;28;19924;-62
2022/05/19 21:12:08;;;;;;;;;;;28.30;28.10;;;;;;21095267;28;19924;-63
2022/05/19 21:22:10;;;;;;;;;;;28.10;28.60;;;;;;21072856;28;19992;-63
2022/05/19 21:32:12;;;;;;;;;;;;;;;;;;21090714;28;19928;-63
2022/05/19 21:42:15;;;;;;;;;;;;;;;;;;21090455;28;19950;-62
2022/05/19 22:02:39;;;;;;;;;;;;;;;;;;21088821;28;20285;-63
2022/05/19 22:12:41;;;;;;;;;;;;;;;;;;21086634;28;19967;-63
2022/05/19 22:22:43;;;;;;;;;;;;;;;;;;21087330;28;20442;-63
2022/05/19 22:32:45;;;;;;;;;;;;;;;;;;21085400;28;20284;-63
2022/05/19 22:42:47;;;;;;;;;;;;;;;;;;21082857;28;20384;-63
2022/05/19 22:52:48;;;;;;;;;;;27.70;32.80;;;;;;21083256;28;20295;-63
2022/05/19 23:02:50;;;;;;;;;;;;;;;;;;21083269;28;19923;-62
2022/05/19 23:12:52;;;;;;;;;;;;;;;;;;21082803;28;20300;-63
2022/05/19 23:22:54;;;;;;;;;;;;;;;;;;21082144;28;19947;-64
2022/05/19 23:43:16;;;;;;;;;;;26.20;34.70;;;;;;21079719;28;19924;-64
2022/05/19 23:53:17;;;;;;;;;;;26.50;34.40;;;;;;21078449;28;19977;-63
